sensor_id;sensor_type;location;lat;lon;timestamp;temperature;humidity
72277;SHT30;61204;49.980;8.358;2023-12-29T00:01:59;8.34;90.15
72277;SHT30;61204;49.980;8.358;2023-12-29T00:04:27;8.25;90.39
72277;SHT30;61204;49.980;8.358;2023-12-29T00:06:53;8.21;90.19
72277;SHT30;61204;49.980;8.358;2023-12-29T00:09:20;8.20;90.08
72277;SHT30;61204;49.980;8.358;2023-12-29T00:11:47;8.24;89.69
72277;SHT30;61204;49.980;8.358;2023-12-29T00:14:14;8.30;89.19
72277;SHT30;61204;49.980;8.358;2023-12-29T00:16:40;8.25;89.35
72277;SHT30;61204;49.980;8.358;2023-12-29T00:19:05;8.30;88.74
72277;SHT30;61204;49.980;8.358;2023-12-29T00:21:31;8.25;88.89
72277;SHT30;61204;49.980;8.358;2023-12-29T00:23:57;8.24;88.90
72277;SHT30;61204;49.980;8.358;2023-12-29T00:26:23;8.22;89.08
72277;SHT30;61204;49.980;8.358;2023-12-29T00:28:48;8.31;88.65
72277;SHT30;61204;49.980;8.358;2023-12-29T00:31:15;8.32;88.49
72277;SHT30;61204;49.980;8.358;2023-12-29T00:33:42;8.24;88.73
72277;SHT30;61204;49.980;8.358;2023-12-29T00:36:08;8.10;89.01
72277;SHT30;61204;49.980;8.358;2023-12-29T00:38:40;8.05;89.13
72277;SHT30;61204;49.980;8.358;2023-12-29T00:41:05;8.10;88.87
72277;SHT30;61204;49.980;8.358;2023-12-29T00:43:31;8.08;89.15
72277;SHT30;61204;49.980;8.358;2023-12-29T00:45:56;8.05;89.07
72277;SHT30;61204;49.980;8.358;2023-12-29T00:48:22;8.03;89.12
72277;SHT30;61204;49.980;8.358;2023-12-29T00:50:47;8.08;89.03
72277;SHT30;61204;49.980;8.358;2023-12-29T00:53:13;8.00;89.02
72277;SHT30;61204;49.980;8.358;2023-12-29T00:55:38;8.00;89.21
72277;SHT30;61204;49.980;8.358;2023-12-29T00:58:04;8.00;88.94
72277;SHT30;61204;49.980;8.358;2023-12-29T01:00:32;7.98;89.04
72277;SHT30;61204;49.980;8.358;2023-12-29T01:02:58;7.98;88.92
72277;SHT30;61204;49.980;8.358;2023-12-29T01:05:23;7.90;89.17
72277;SHT30;61204;49.980;8.358;2023-12-29T01:07:49;7.90;89.16
72277;SHT30;61204;49.980;8.358;2023-12-29T01:10:14;7.96;88.66
72277;SHT30;61204;49.980;8.358;2023-12-29T01:12:40;7.96;88.52
72277;SHT30;61204;49.980;8.358;2023-12-29T01:15:06;7.97;88.49
72277;SHT30;61204;49.980;8.358;2023-12-29T01:17:32;7.87;88.71
72277;SHT30;61204;49.980;8.358;2023-12-29T01:19:57;8.00;88.14
72277;SHT30;61204;49.980;8.358;2023-12-29T01:22:23;7.94;88.16
72277;SHT30;61204;49.980;8.358;2023-12-29T01:24:49;7.86;88.46
72277;SHT30;61204;49.980;8.358;2023-12-29T01:27:14;7.80;88.29
72277;SHT30;61204;49.980;8.358;2023-12-29T01:29:40;7.77;88.52
72277;SHT30;61204;49.980;8.358;2023-12-29T01:32:06;7.87;88.30
72277;SHT30;61204;49.980;8.358;2023-12-29T01:34:34;7.93;87.73
72277;SHT30;61204;49.980;8.358;2023-12-29T01:37:02;7.98;87.32
72277;SHT30;61204;49.980;8.358;2023-12-29T01:39:30;8.01;87.07
72277;SHT30;61204;49.980;8.358;2023-12-29T01:41:58;8.08;86.88
72277;SHT30;61204;49.980;8.358;2023-12-29T01:44:24;8.08;86.81
72277;SHT30;61204;49.980;8.358;2023-12-29T01:46:54;8.15;86.37
72277;SHT30;61204;49.980;8.358;2023-12-29T01:49:22;8.32;85.52
72277;SHT30;61204;49.980;8.358;2023-12-29T01:52:00;8.38;84.80
72277;SHT30;61204;49.980;8.358;2023-12-29T01:54:35;8.52;84.04
72277;SHT30;61204;49.980;8.358;2023-12-29T01:57:04;8.62;83.15
72277;SHT30;61204;49.980;8.358;2023-12-29T01:59:32;8.83;82.05
72277;SHT30;61204;49.980;8.358;2023-12-29T02:01:57;9.01;81.43
72277;SHT30;61204;49.980;8.358;2023-12-29T02:04:27;9.00;81.57
72277;SHT30;61204;49.980;8.358;2023-12-29T02:06:54;9.04;81.19
72277;SHT30;61204;49.980;8.358;2023-12-29T02:09:21;9.05;81.22
72277;SHT30;61204;49.980;8.358;2023-12-29T02:11:50;9.03;81.57
72277;SHT30;61204;49.980;8.358;2023-12-29T02:14:17;9.03;81.77
72277;SHT30;61204;49.980;8.358;2023-12-29T02:17:14;8.90;82.33
72277;SHT30;61204;49.980;8.358;2023-12-29T02:19:49;8.77;83.20
72277;SHT30;61204;49.980;8.358;2023-12-29T02:22:16;8.77;83.42
72277;SHT30;61204;49.980;8.358;2023-12-29T02:24:49;8.60;84.30
72277;SHT30;61204;49.980;8.358;2023-12-29T02:27:46;8.72;84.09
72277;SHT30;61204;49.980;8.358;2023-12-29T02:30:29;8.63;84.12
72277;SHT30;61204;49.980;8.358;2023-12-29T02:33:10;8.41;84.59
72277;SHT30;61204;49.980;8.358;2023-12-29T02:35:43;8.41;84.54
72277;SHT30;61204;49.980;8.358;2023-12-29T02:38:12;8.45;84.47
72277;SHT30;61204;49.980;8.358;2023-12-29T02:40:39;8.40;84.58
72277;SHT30;61204;49.980;8.358;2023-12-29T02:43:09;8.41;84.64
72277;SHT30;61204;49.980;8.358;2023-12-29T02:45:35;8.53;84.24
72277;SHT30;61204;49.980;8.358;2023-12-29T02:48:03;8.48;84.41
72277;SHT30;61204;49.980;8.358;2023-12-29T02:50:29;8.44;84.52
72277;SHT30;61204;49.980;8.358;2023-12-29T02:52:55;8.42;84.74
72277;SHT30;61204;49.980;8.358;2023-12-29T02:55:20;8.42;84.52
72277;SHT30;61204;49.980;8.358;2023-12-29T02:57:46;8.42;84.58
72277;SHT30;61204;49.980;8.358;2023-12-29T03:00:13;8.40;84.60
72277;SHT30;61204;49.980;8.358;2023-12-29T03:02:39;8.68;83.72
72277;SHT30;61204;49.980;8.358;2023-12-29T03:05:05;8.87;83.02
72277;SHT30;61204;49.980;8.358;2023-12-29T03:07:31;8.80;83.36
72277;SHT30;61204;49.980;8.358;2023-12-29T03:09:57;8.83;82.99
72277;SHT30;61204;49.980;8.358;2023-12-29T03:12:22;9.08;82.18
72277;SHT30;61204;49.980;8.358;2023-12-29T03:14:48;9.13;81.92
72277;SHT30;61204;49.980;8.358;2023-12-29T03:17:13;9.15;81.82
72277;SHT30;61204;49.980;8.358;2023-12-29T03:19:41;9.21;81.42
72277;SHT30;61204;49.980;8.358;2023-12-29T03:22:07;9.13;81.82
72277;SHT30;61204;49.980;8.358;2023-12-29T03:24:33;9.20;81.48
72277;SHT30;61204;49.980;8.358;2023-12-29T03:26:58;9.18;81.04
72277;SHT30;61204;49.980;8.358;2023-12-29T03:29:24;9.11;81.07
72277;SHT30;61204;49.980;8.358;2023-12-29T03:31:52;9.05;81.31
72277;SHT30;61204;49.980;8.358;2023-12-29T03:34:17;8.99;81.40
72277;SHT30;61204;49.980;8.358;2023-12-29T03:36:45;8.97;81.61
72277;SHT30;61204;49.980;8.358;2023-12-29T03:39:10;8.81;82.07
72277;SHT30;61204;49.980;8.358;2023-12-29T03:41:36;9.03;81.33
72277;SHT30;61204;49.980;8.358;2023-12-29T03:44:01;8.83;82.00
72277;SHT30;61204;49.980;8.358;2023-12-29T03:46:28;8.77;82.42
72277;SHT30;61204;49.980;8.358;2023-12-29T03:48:54;8.81;82.09
72277;SHT30;61204;49.980;8.358;2023-12-29T03:51:20;8.93;81.63
72277;SHT30;61204;49.980;8.358;2023-12-29T03:53:45;8.80;82.09
72277;SHT30;61204;49.980;8.358;2023-12-29T03:56:16;8.77;82.29
72277;SHT30;61204;49.980;8.358;2023-12-29T03:58:47;8.79;82.26
72277;SHT30;61204;49.980;8.358;2023-12-29T04:01:14;8.70;82.76
72277;SHT30;61204;49.980;8.358;2023-12-29T04:03:41;8.58;83.09
72277;SHT30;61204;49.980;8.358;2023-12-29T04:06:10;8.59;82.94
72277;SHT30;61204;49.980;8.358;2023-12-29T04:08:37;8.59;83.10
72277;SHT30;61204;49.980;8.358;2023-12-29T04:11:04;8.49;83.29
72277;SHT30;61204;49.980;8.358;2023-12-29T04:13:31;8.53;83.33
72277;SHT30;61204;49.980;8.358;2023-12-29T04:15:59;8.58;83.18
72277;SHT30;61204;49.980;8.358;2023-12-29T04:18:25;8.46;83.59
72277;SHT30;61204;49.980;8.358;2023-12-29T04:20:50;8.55;83.40
72277;SHT30;61204;49.980;8.358;2023-12-29T04:23:16;8.46;83.70
72277;SHT30;61204;49.980;8.358;2023-12-29T04:25:42;8.34;84.10
72277;SHT30;61204;49.980;8.358;2023-12-29T04:28:08;8.31;84.32
72277;SHT30;61204;49.980;8.358;2023-12-29T04:30:37;8.24;84.49
72277;SHT30;61204;49.980;8.358;2023-12-29T04:33:03;8.35;84.35
72277;SHT30;61204;49.980;8.358;2023-12-29T04:35:31;8.37;84.16
72277;SHT30;61204;49.980;8.358;2023-12-29T04:37:57;8.38;84.26
72277;SHT30;61204;49.980;8.358;2023-12-29T04:40:22;8.35;84.51
72277;SHT30;61204;49.980;8.358;2023-12-29T04:42:48;8.56;83.69
72277;SHT30;61204;49.980;8.358;2023-12-29T04:45:13;8.52;83.67
72277;SHT30;61204;49.980;8.358;2023-12-29T04:47:39;8.62;83.68
72277;SHT30;61204;49.980;8.358;2023-12-29T04:50:08;8.62;83.37
72277;SHT30;61204;49.980;8.358;2023-12-29T04:52:34;8.56;83.57
72277;SHT30;61204;49.980;8.358;2023-12-29T04:54:59;8.62;83.32
72277;SHT30;61204;49.980;8.358;2023-12-29T04:57:27;8.73;82.81
72277;SHT30;61204;49.980;8.358;2023-12-29T04:59:53;8.62;83.09
72277;SHT30;61204;49.980;8.358;2023-12-29T05:02:21;8.75;82.83
72277;SHT30;61204;49.980;8.358;2023-12-29T05:04:46;8.70;82.53
72277;SHT30;61204;49.980;8.358;2023-12-29T05:07:14;8.72;82.36
72277;SHT30;61204;49.980;8.358;2023-12-29T05:09:40;8.81;81.93
72277;SHT30;61204;49.980;8.358;2023-12-29T05:12:05;8.73;81.99
72277;SHT30;61204;49.980;8.358;2023-12-29T05:14:31;8.66;82.43
72277;SHT30;61204;49.980;8.358;2023-12-29T05:17:08;8.69;82.13
72277;SHT30;61204;49.980;8.358;2023-12-29T05:19:34;8.97;80.97
72277;SHT30;61204;49.980;8.358;2023-12-29T05:22:00;8.88;81.18
72277;SHT30;61204;49.980;8.358;2023-12-29T05:24:25;8.93;80.90
72277;SHT30;61204;49.980;8.358;2023-12-29T05:26:51;8.87;81.10
72277;SHT30;61204;49.980;8.358;2023-12-29T05:29:16;8.84;81.23
72277;SHT30;61204;49.980;8.358;2023-12-29T05:31:44;8.88;81.22
72277;SHT30;61204;49.980;8.358;2023-12-29T05:34:09;8.81;81.43
72277;SHT30;61204;49.980;8.358;2023-12-29T05:36:39;8.91;81.19
72277;SHT30;61204;49.980;8.358;2023-12-29T05:39:06;8.96;81.07
72277;SHT30;61204;49.980;8.358;2023-12-29T05:41:31;9.03;80.99
72277;SHT30;61204;49.980;8.358;2023-12-29T05:43:57;8.84;81.66
72277;SHT30;61204;49.980;8.358;2023-12-29T05:46:23;8.91;81.59
72277;SHT30;61204;49.980;8.358;2023-12-29T05:48:49;8.91;81.81
72277;SHT30;61204;49.980;8.358;2023-12-29T05:51:17;8.93;81.76
72277;SHT30;61204;49.980;8.358;2023-12-29T05:53:43;8.90;81.98
72277;SHT30;61204;49.980;8.358;2023-12-29T05:56:12;8.76;82.39
72277;SHT30;61204;49.980;8.358;2023-12-29T05:58:42;8.87;81.93
72277;SHT30;61204;49.980;8.358;2023-12-29T06:01:09;8.96;81.52
72277;SHT30;61204;49.980;8.358;2023-12-29T06:03:37;8.94;81.75
72277;SHT30;61204;49.980;8.358;2023-12-29T06:06:06;8.99;82.01
72277;SHT30;61204;49.980;8.358;2023-12-29T06:08:31;9.08;81.88
72277;SHT30;61204;49.980;8.358;2023-12-29T06:10:57;9.25;81.30
72277;SHT30;61204;49.980;8.358;2023-12-29T06:13:22;9.27;81.41
72277;SHT30;61204;49.980;8.358;2023-12-29T06:15:48;9.21;81.59
72277;SHT30;61204;49.980;8.358;2023-12-29T06:18:14;9.20;81.32
72277;SHT30;61204;49.980;8.358;2023-12-29T06:20:39;9.24;81.38
72277;SHT30;61204;49.980;8.358;2023-12-29T06:23:05;9.20;81.61
72277;SHT30;61204;49.980;8.358;2023-12-29T06:25:31;9.22;81.71
72277;SHT30;61204;49.980;8.358;2023-12-29T06:27:58;9.22;82.05
72277;SHT30;61204;49.980;8.358;2023-12-29T06:30:23;9.31;81.95
72277;SHT30;61204;49.980;8.358;2023-12-29T06:32:52;9.35;82.13
72277;SHT30;61204;49.980;8.358;2023-12-29T06:35:18;9.36;82.23
72277;SHT30;61204;49.980;8.358;2023-12-29T06:37:46;9.46;82.01
72277;SHT30;61204;49.980;8.358;2023-12-29T06:40:12;9.53;82.25
72277;SHT30;61204;49.980;8.358;2023-12-29T06:42:37;9.55;82.12
72277;SHT30;61204;49.980;8.358;2023-12-29T06:45:04;9.53;82.41
72277;SHT30;61204;49.980;8.358;2023-12-29T06:47:33;9.56;82.29
72277;SHT30;61204;49.980;8.358;2023-12-29T06:49:58;9.66;82.16
72277;SHT30;61204;49.980;8.358;2023-12-29T06:52:24;9.63;82.33
72277;SHT30;61204;49.980;8.358;2023-12-29T06:54:50;9.69;82.08
72277;SHT30;61204;49.980;8.358;2023-12-29T06:57:16;9.62;82.47
72277;SHT30;61204;49.980;8.358;2023-12-29T06:59:42;9.56;82.94
72277;SHT30;61204;49.980;8.358;2023-12-29T07:02:07;9.62;82.92
72277;SHT30;61204;49.980;8.358;2023-12-29T07:04:33;9.55;83.35
72277;SHT30;61204;49.980;8.358;2023-12-29T07:07:00;9.65;83.16
72277;SHT30;61204;49.980;8.358;2023-12-29T07:09:27;9.73;83.01
72277;SHT30;61204;49.980;8.358;2023-12-29T07:11:52;9.72;83.32
72277;SHT30;61204;49.980;8.358;2023-12-29T07:14:18;9.82;83.04
72277;SHT30;61204;49.980;8.358;2023-12-29T07:16:44;9.77;82.93
72277;SHT30;61204;49.980;8.358;2023-12-29T07:19:09;9.77;82.96
72277;SHT30;61204;49.980;8.358;2023-12-29T07:21:35;9.79;82.89
72277;SHT30;61204;49.980;8.358;2023-12-29T07:24:03;9.83;82.61
72277;SHT30;61204;49.980;8.358;2023-12-29T07:26:29;9.87;82.74
72277;SHT30;61204;49.980;8.358;2023-12-29T07:28:57;9.93;82.49
72277;SHT30;61204;49.980;8.358;2023-12-29T07:31:23;9.85;82.79
72277;SHT30;61204;49.980;8.358;2023-12-29T07:33:49;9.86;82.87
72277;SHT30;61204;49.980;8.358;2023-12-29T07:36:19;9.93;82.61
72277;SHT30;61204;49.980;8.358;2023-12-29T07:38:44;9.98;82.24
72277;SHT30;61204;49.980;8.358;2023-12-29T07:41:10;10.08;81.77
72277;SHT30;61204;49.980;8.358;2023-12-29T07:43:35;10.10;81.86
72277;SHT30;61204;49.980;8.358;2023-12-29T07:46:02;10.10;82.00
72277;SHT30;61204;49.980;8.358;2023-12-29T07:48:27;10.11;81.75
72277;SHT30;61204;49.980;8.358;2023-12-29T07:50:53;10.11;81.93
72277;SHT30;61204;49.980;8.358;2023-12-29T07:53:19;10.07;82.06
72277;SHT30;61204;49.980;8.358;2023-12-29T07:55:45;10.11;82.00
72277;SHT30;61204;49.980;8.358;2023-12-29T07:58:12;10.14;81.63
72277;SHT30;61204;49.980;8.358;2023-12-29T08:00:37;10.13;81.83
72277;SHT30;61204;49.980;8.358;2023-12-29T08:03:05;10.11;81.85
72277;SHT30;61204;49.980;8.358;2023-12-29T08:05:34;10.14;81.55
72277;SHT30;61204;49.980;8.358;2023-12-29T08:08:00;10.20;81.45
72277;SHT30;61204;49.980;8.358;2023-12-29T08:10:26;10.20;81.68
72277;SHT30;61204;49.980;8.358;2023-12-29T08:12:51;10.18;81.60
72277;SHT30;61204;49.980;8.358;2023-12-29T08:15:17;10.18;81.47
72277;SHT30;61204;49.980;8.358;2023-12-29T08:17:43;10.24;81.21
72277;SHT30;61204;49.980;8.358;2023-12-29T08:20:09;10.27;81.02
72277;SHT30;61204;49.980;8.358;2023-12-29T08:22:35;10.31;81.06
72277;SHT30;61204;49.980;8.358;2023-12-29T08:25:01;10.35;80.69
72277;SHT30;61204;49.980;8.358;2023-12-29T08:27:26;10.35;80.36
72277;SHT30;61204;49.980;8.358;2023-12-29T08:29:52;10.37;80.53
72277;SHT30;61204;49.980;8.358;2023-12-29T08:32:19;10.44;80.50
72277;SHT30;61204;49.980;8.358;2023-12-29T08:34:46;10.44;80.06
72277;SHT30;61204;49.980;8.358;2023-12-29T08:37:12;10.46;79.76
72277;SHT30;61204;49.980;8.358;2023-12-29T08:39:40;10.45;79.96
72277;SHT30;61204;49.980;8.358;2023-12-29T08:42:06;10.50;79.96
72277;SHT30;61204;49.980;8.358;2023-12-29T08:44:31;10.45;80.02
72277;SHT30;61204;49.980;8.358;2023-12-29T08:46:58;10.52;79.80
72277;SHT30;61204;49.980;8.358;2023-12-29T08:49:23;10.53;79.73
72277;SHT30;61204;49.980;8.358;2023-12-29T08:51:49;10.50;79.80
72277;SHT30;61204;49.980;8.358;2023-12-29T08:54:17;10.50;79.31
72277;SHT30;61204;49.980;8.358;2023-12-29T08:56:49;10.58;79.10
72277;SHT30;61204;49.980;8.358;2023-12-29T08:59:15;10.45;79.87
72277;SHT30;61204;49.980;8.358;2023-12-29T09:01:40;10.49;79.84
72277;SHT30;61204;49.980;8.358;2023-12-29T09:04:06;10.55;79.04
72277;SHT30;61204;49.980;8.358;2023-12-29T09:06:34;10.56;79.30
72277;SHT30;61204;49.980;8.358;2023-12-29T09:09:00;10.58;79.37
72277;SHT30;61204;49.980;8.358;2023-12-29T09:11:25;10.58;79.85
72277;SHT30;61204;49.980;8.358;2023-12-29T09:13:52;10.62;78.94
72277;SHT30;61204;49.980;8.358;2023-12-29T09:16:18;10.70;79.11
72277;SHT30;61204;49.980;8.358;2023-12-29T09:18:44;10.72;79.45
72277;SHT30;61204;49.980;8.358;2023-12-29T09:21:10;10.75;79.23
72277;SHT30;61204;49.980;8.358;2023-12-29T09:23:35;10.70;79.34
72277;SHT30;61204;49.980;8.358;2023-12-29T09:26:03;10.69;79.32
72277;SHT30;61204;49.980;8.358;2023-12-29T09:28:28;10.69;79.49
72277;SHT30;61204;49.980;8.358;2023-12-29T09:30:54;10.72;79.22
72277;SHT30;61204;49.980;8.358;2023-12-29T09:33:22;10.72;79.27
72277;SHT30;61204;49.980;8.358;2023-12-29T09:35:51;10.79;79.35
72277;SHT30;61204;49.980;8.358;2023-12-29T09:38:18;10.79;79.27
72277;SHT30;61204;49.980;8.358;2023-12-29T09:40:45;10.77;79.27
72277;SHT30;61204;49.980;8.358;2023-12-29T09:43:14;10.81;79.27
72277;SHT30;61204;49.980;8.358;2023-12-29T09:45:44;10.76;79.50
72277;SHT30;61204;49.980;8.358;2023-12-29T09:48:16;10.81;79.22
72277;SHT30;61204;49.980;8.358;2023-12-29T09:50:49;10.80;79.85
72277;SHT30;61204;49.980;8.358;2023-12-29T09:53:16;10.79;79.82
72277;SHT30;61204;49.980;8.358;2023-12-29T09:55:43;10.87;79.34
72277;SHT30;61204;49.980;8.358;2023-12-29T09:58:12;10.81;79.90
72277;SHT30;61204;49.980;8.358;2023-12-29T10:00:39;10.84;79.91
72277;SHT30;61204;49.980;8.358;2023-12-29T10:03:05;10.92;79.87
72277;SHT30;61204;49.980;8.358;2023-12-29T10:05:31;10.96;79.60
72277;SHT30;61204;49.980;8.358;2023-12-29T10:08:02;10.93;79.52
72277;SHT30;61204;49.980;8.358;2023-12-29T10:10:32;10.93;79.84
72277;SHT30;61204;49.980;8.358;2023-12-29T10:13:03;10.93;79.75
72277;SHT30;61204;49.980;8.358;2023-12-29T10:15:47;10.99;79.92
72277;SHT30;61204;49.980;8.358;2023-12-29T10:18:38;11.01;79.31
72277;SHT30;61204;49.980;8.358;2023-12-29T10:21:55;10.97;79.66
72277;SHT30;61204;49.980;8.358;2023-12-29T10:24:29;11.03;79.71
72277;SHT30;61204;49.980;8.358;2023-12-29T10:26:55;11.07;79.76
72277;SHT30;61204;49.980;8.358;2023-12-29T10:29:21;11.08;79.38
72277;SHT30;61204;49.980;8.358;2023-12-29T10:31:50;11.08;79.49
72277;SHT30;61204;49.980;8.358;2023-12-29T10:34:24;11.08;79.39
72277;SHT30;61204;49.980;8.358;2023-12-29T10:36:59;11.08;79.41
72277;SHT30;61204;49.980;8.358;2023-12-29T10:39:35;11.13;79.47
72277;SHT30;61204;49.980;8.358;2023-12-29T10:42:07;11.13;79.20
72277;SHT30;61204;49.980;8.358;2023-12-29T10:44:35;11.08;79.37
72277;SHT30;61204;49.980;8.358;2023-12-29T10:47:12;11.07;79.36
72277;SHT30;61204;49.980;8.358;2023-12-29T10:49:42;10.97;79.83
72277;SHT30;61204;49.980;8.358;2023-12-29T10:52:15;11.08;79.66
72277;SHT30;61204;49.980;8.358;2023-12-29T10:54:45;11.10;79.51
72277;SHT30;61204;49.980;8.358;2023-12-29T10:57:12;11.13;79.16
72277;SHT30;61204;49.980;8.358;2023-12-29T10:59:41;11.03;79.40
72277;SHT30;61204;49.980;8.358;2023-12-29T11:02:11;11.11;79.05
72277;SHT30;61204;49.980;8.358;2023-12-29T11:04:40;11.04;78.81
72277;SHT30;61204;49.980;8.358;2023-12-29T11:07:07;11.06;78.87
72277;SHT30;61204;49.980;8.358;2023-12-29T11:09:33;11.07;79.00
72277;SHT30;61204;49.980;8.358;2023-12-29T11:12:04;11.11;78.57
72277;SHT30;61204;49.980;8.358;2023-12-29T11:14:31;11.18;78.29
72277;SHT30;61204;49.980;8.358;2023-12-29T11:17:00;11.08;78.56
72277;SHT30;61204;49.980;8.358;2023-12-29T11:19:27;11.24;77.94
72277;SHT30;61204;49.980;8.358;2023-12-29T11:21:56;11.20;77.76
72277;SHT30;61204;49.980;8.358;2023-12-29T11:24:23;11.27;77.32
72277;SHT30;61204;49.980;8.358;2023-12-29T11:26:53;11.22;77.61
72277;SHT30;61204;49.980;8.358;2023-12-29T11:29:19;11.18;77.61
72277;SHT30;61204;49.980;8.358;2023-12-29T11:31:47;11.17;77.69
72277;SHT30;61204;49.980;8.358;2023-12-29T11:34:33;11.18;77.91
72277;SHT30;61204;49.980;8.358;2023-12-29T11:37:48;11.15;77.98
72277;SHT30;61204;49.980;8.358;2023-12-29T11:40:41;11.14;78.25
72277;SHT30;61204;49.980;8.358;2023-12-29T11:43:16;11.06;78.65
72277;SHT30;61204;49.980;8.358;2023-12-29T11:45:43;11.14;78.42
72277;SHT30;61204;49.980;8.358;2023-12-29T11:48:10;11.11;78.37
72277;SHT30;61204;49.980;8.358;2023-12-29T11:50:39;11.10;78.72
72277;SHT30;61204;49.980;8.358;2023-12-29T11:53:09;11.07;78.80
72277;SHT30;61204;49.980;8.358;2023-12-29T11:55:56;11.13;78.73
72277;SHT30;61204;49.980;8.358;2023-12-29T11:58:28;11.08;79.04
72277;SHT30;61204;49.980;8.358;2023-12-29T12:00:53;11.07;79.03
72277;SHT30;61204;49.980;8.358;2023-12-29T12:03:28;11.06;79.29
72277;SHT30;61204;49.980;8.358;2023-12-29T12:05:58;11.07;79.31
72277;SHT30;61204;49.980;8.358;2023-12-29T12:08:36;11.10;79.05
72277;SHT30;61204;49.980;8.358;2023-12-29T12:11:41;11.14;79.27
72277;SHT30;61204;49.980;8.358;2023-12-29T12:14:07;11.14;79.12
72277;SHT30;61204;49.980;8.358;2023-12-29T12:19:14;11.17;79.12
72277;SHT30;61204;49.980;8.358;2023-12-29T12:21:46;11.22;78.74
72277;SHT30;61204;49.980;8.358;2023-12-29T12:24:18;11.30;78.79
72277;SHT30;61204;49.980;8.358;2023-12-29T12:26:45;11.31;78.59
72277;SHT30;61204;49.980;8.358;2023-12-29T12:29:13;11.32;78.55
72277;SHT30;61204;49.980;8.358;2023-12-29T12:31:57;11.38;78.12
72277;SHT30;61204;49.980;8.358;2023-12-29T12:34:23;11.32;78.64
72277;SHT30;61204;49.980;8.358;2023-12-29T12:36:51;11.39;78.51
72277;SHT30;61204;49.980;8.358;2023-12-29T12:39:17;11.43;78.43
72277;SHT30;61204;49.980;8.358;2023-12-29T12:41:46;11.45;78.10
72277;SHT30;61204;49.980;8.358;2023-12-29T12:44:14;11.48;77.79
72277;SHT30;61204;49.980;8.358;2023-12-29T12:46:55;11.62;77.71
72277;SHT30;61204;49.980;8.358;2023-12-29T12:49:23;11.66;77.30
72277;SHT30;61204;49.980;8.358;2023-12-29T12:51:49;11.51;77.54
72277;SHT30;61204;49.980;8.358;2023-12-29T12:54:19;11.54;77.60
72277;SHT30;61204;49.980;8.358;2023-12-29T12:56:46;11.46;77.91
72277;SHT30;61204;49.980;8.358;2023-12-29T12:59:13;11.42;78.12
72277;SHT30;61204;49.980;8.358;2023-12-29T13:01:40;11.46;78.15
72277;SHT30;61204;49.980;8.358;2023-12-29T13:04:07;11.48;77.76
72277;SHT30;61204;49.980;8.358;2023-12-29T13:06:34;11.46;78.08
72277;SHT30;61204;49.980;8.358;2023-12-29T13:09:06;11.49;78.15
72277;SHT30;61204;49.980;8.358;2023-12-29T13:11:37;11.49;78.10
72277;SHT30;61204;49.980;8.358;2023-12-29T13:14:03;11.42;77.67
72277;SHT30;61204;49.980;8.358;2023-12-29T13:16:37;11.36;78.49
72277;SHT30;61204;49.980;8.358;2023-12-29T13:19:24;11.39;77.86
72277;SHT30;61204;49.980;8.358;2023-12-29T13:21:54;11.54;78.14
72277;SHT30;61204;49.980;8.358;2023-12-29T13:24:24;11.51;78.32
72277;SHT30;61204;49.980;8.358;2023-12-29T13:26:55;11.58;78.66
72277;SHT30;61204;49.980;8.358;2023-12-29T13:29:25;11.56;78.50
72277;SHT30;61204;49.980;8.358;2023-12-29T13:32:00;11.49;78.19
72277;SHT30;61204;49.980;8.358;2023-12-29T13:40:40;11.54;78.58
72277;SHT30;61204;49.980;8.358;2023-12-29T13:43:16;11.43;78.36
72277;SHT30;61204;49.980;8.358;2023-12-29T13:45:50;11.48;78.27
72277;SHT30;61204;49.980;8.358;2023-12-29T13:48:19;11.48;78.28
72277;SHT30;61204;49.980;8.358;2023-12-29T13:50:48;11.49;78.52
72277;SHT30;61204;49.980;8.358;2023-12-29T13:53:22;11.58;78.03
72277;SHT30;61204;49.980;8.358;2023-12-29T13:55:49;11.56;77.87
72277;SHT30;61204;49.980;8.358;2023-12-29T13:58:16;11.54;78.37
72277;SHT30;61204;49.980;8.358;2023-12-29T14:00:43;11.41;78.23
72277;SHT30;61204;49.980;8.358;2023-12-29T14:03:22;11.41;78.33
72277;SHT30;61204;49.980;8.358;2023-12-29T14:05:56;11.35;78.97
72277;SHT30;61204;49.980;8.358;2023-12-29T14:08:39;11.48;79.03
72277;SHT30;61204;49.980;8.358;2023-12-29T14:11:08;11.41;79.58
72277;SHT30;61204;49.980;8.358;2023-12-29T14:13:34;11.38;79.70
72277;SHT30;61204;49.980;8.358;2023-12-29T14:16:01;11.27;80.48
72277;SHT30;61204;49.980;8.358;2023-12-29T14:25:15;11.18;81.51
72277;SHT30;61204;49.980;8.358;2023-12-29T14:27:41;11.11;81.53
72277;SHT30;61204;49.980;8.358;2023-12-29T14:30:18;11.10;81.67
72277;SHT30;61204;49.980;8.358;2023-12-29T14:32:45;11.04;82.02
72277;SHT30;61204;49.980;8.358;2023-12-29T14:35:12;11.08;81.69
72277;SHT30;61204;49.980;8.358;2023-12-29T14:37:40;10.99;82.04
72277;SHT30;61204;49.980;8.358;2023-12-29T14:40:11;10.99;81.94
72277;SHT30;61204;49.980;8.358;2023-12-29T14:42:39;10.99;82.18
72277;SHT30;61204;49.980;8.358;2023-12-29T14:45:08;11.01;81.66
72277;SHT30;61204;49.980;8.358;2023-12-29T14:47:36;11.00;81.32
72277;SHT30;61204;49.980;8.358;2023-12-29T14:50:02;11.04;81.08
72277;SHT30;61204;49.980;8.358;2023-12-29T14:52:27;11.06;80.58
72277;SHT30;61204;49.980;8.358;2023-12-29T14:54:53;11.04;80.69
72277;SHT30;61204;49.980;8.358;2023-12-29T14:57:18;11.07;80.37
72277;SHT30;61204;49.980;8.358;2023-12-29T14:59:44;11.06;80.25
72277;SHT30;61204;49.980;8.358;2023-12-29T15:02:09;11.06;80.16
72277;SHT30;61204;49.980;8.358;2023-12-29T15:04:36;11.04;79.87
72277;SHT30;61204;49.980;8.358;2023-12-29T15:07:03;11.00;80.21
72277;SHT30;61204;49.980;8.358;2023-12-29T15:09:30;11.03;80.11
72277;SHT30;61204;49.980;8.358;2023-12-29T15:11:57;11.00;79.82
72277;SHT30;61204;49.980;8.358;2023-12-29T15:14:24;11.00;79.95
72277;SHT30;61204;49.980;8.358;2023-12-29T15:16:50;10.97;80.22
72277;SHT30;61204;49.980;8.358;2023-12-29T15:19:18;11.03;79.97
72277;SHT30;61204;49.980;8.358;2023-12-29T15:21:44;11.00;79.77
72277;SHT30;61204;49.980;8.358;2023-12-29T15:24:10;11.00;80.15
72277;SHT30;61204;49.980;8.358;2023-12-29T15:26:38;11.00;79.65
72277;SHT30;61204;49.980;8.358;2023-12-29T15:29:03;10.96;79.67
72277;SHT30;61204;49.980;8.358;2023-12-29T15:31:29;11.01;78.99
72277;SHT30;61204;49.980;8.358;2023-12-29T15:33:55;10.99;79.28
72277;SHT30;61204;49.980;8.358;2023-12-29T15:36:20;10.94;79.52
72277;SHT30;61204;49.980;8.358;2023-12-29T15:38:51;10.92;79.65
72277;SHT30;61204;49.980;8.358;2023-12-29T15:41:20;10.97;79.47
72277;SHT30;61204;49.980;8.358;2023-12-29T15:43:46;10.96;79.04
72277;SHT30;61204;49.980;8.358;2023-12-29T15:46:16;10.99;79.01
72277;SHT30;61204;49.980;8.358;2023-12-29T15:48:44;10.97;78.83
72277;SHT30;61204;49.980;8.358;2023-12-29T15:51:11;11.01;78.74
72277;SHT30;61204;49.980;8.358;2023-12-29T15:53:40;10.99;78.68
72277;SHT30;61204;49.980;8.358;2023-12-29T15:56:07;10.93;79.27
72277;SHT30;61204;49.980;8.358;2023-12-29T15:58:33;10.92;79.61
72277;SHT30;61204;49.980;8.358;2023-12-29T16:00:59;10.83;80.67